createdAt,value
2018-08-30T00:01:53.784Z,99685.00
2018-08-30T00:04:21.358Z,99681.00
2018-08-30T00:06:48.905Z,99685.00
2018-08-30T00:09:16.464Z,99681.00
2018-08-30T00:11:44.020Z,99681.00
2018-08-30T00:14:11.652Z,99677.00
2018-08-30T00:16:39.209Z,99679.00
2018-08-30T00:19:06.794Z,99670.00
2018-08-30T00:21:34.356Z,99663.00
2018-08-30T00:24:01.914Z,99672.00
2018-08-30T00:26:29.466Z,99676.00
2018-08-30T00:28:57.020Z,99672.00
2018-08-30T00:31:24.572Z,99660.00
2018-08-30T00:33:52.130Z,99662.00
2018-08-30T00:36:19.694Z,99661.00
2018-08-30T00:38:47.257Z,99666.00
2018-08-30T00:41:14.826Z,99660.00
2018-08-30T00:43:42.381Z,99661.00
2018-08-30T00:46:09.939Z,99672.00
2018-08-30T00:48:37.504Z,99666.00
2018-08-30T00:51:05.057Z,99664.00
2018-08-30T00:53:32.601Z,99661.00
2018-08-30T00:56:00.145Z,99663.00
2018-08-30T00:58:27.707Z,99663.00
2018-08-30T01:00:55.256Z,99671.00
2018-08-30T01:03:22.820Z,99661.00
2018-08-30T01:05:50.387Z,99667.00
2018-08-30T01:08:17.946Z,99670.00
2018-08-30T01:10:45.513Z,99668.00
2018-08-30T01:13:13.071Z,99668.00
2018-08-30T01:15:40.641Z,99661.00
2018-08-30T01:18:08.188Z,99673.00
2018-08-30T01:20:35.755Z,99670.00
2018-08-30T01:23:03.305Z,99667.00
2018-08-30T01:25:30.860Z,99655.00
2018-08-30T01:27:58.418Z,99667.00
2018-08-30T01:30:25.985Z,99669.00
2018-08-30T01:32:53.559Z,99672.00
2018-08-30T01:35:21.123Z,99669.00
2018-08-30T01:37:48.678Z,99676.00
2018-08-30T01:40:16.224Z,99682.00
2018-08-30T01:42:43.768Z,99688.00
2018-08-30T01:45:11.336Z,99698.00
2018-08-30T01:47:38.890Z,99686.00
2018-08-30T01:50:06.450Z,99686.00
2018-08-30T01:52:34.000Z,99694.00
2018-08-30T01:55:01.613Z,99684.00
2018-08-30T01:57:29.156Z,99694.00
2018-08-30T01:59:56.710Z,99693.00
2018-08-30T02:02:24.279Z,99680.00
2018-08-30T02:04:51.839Z,99681.00
2018-08-30T02:07:19.390Z,99673.00
2018-08-30T02:09:46.941Z,99679.00
2018-08-30T02:12:14.488Z,99684.00
2018-08-30T02:14:42.049Z,99674.00
2018-08-30T02:17:09.615Z,99672.00
2018-08-30T02:19:37.188Z,99676.00
2018-08-30T02:22:04.881Z,99685.00
2018-08-30T02:24:32.436Z,99680.00
2018-08-30T02:26:59.978Z,99683.00
2018-08-30T02:29:27.534Z,99680.00
2018-08-30T02:31:55.077Z,99674.00
2018-08-30T02:34:22.640Z,99679.00
2018-08-30T02:36:50.190Z,99674.00
2018-08-30T02:39:17.768Z,99681.00
2018-08-30T02:41:45.308Z,99679.00
2018-08-30T02:44:12.864Z,99674.00
2018-08-30T02:46:40.430Z,99690.00
2018-08-30T02:49:08.027Z,99682.00
2018-08-30T02:51:35.568Z,99684.00
2018-08-30T02:54:03.481Z,99674.00
2018-08-30T02:56:33.064Z,99685.00
2018-08-30T02:59:00.622Z,99689.00
2018-08-30T03:01:28.185Z,99694.00
2018-08-30T03:03:55.736Z,99687.00
2018-08-30T03:06:23.284Z,99696.00
2018-08-30T03:08:50.843Z,99693.00
2018-08-30T03:11:18.387Z,99694.00
2018-08-30T03:13:45.937Z,99701.00
2018-08-30T03:16:13.484Z,99698.00
2018-08-30T03:18:41.057Z,99699.00
2018-08-30T03:21:08.625Z,99697.00
2018-08-30T03:23:36.193Z,99698.00
2018-08-30T03:26:03.764Z,99694.00
2018-08-30T03:28:31.312Z,99702.00
2018-08-30T03:30:58.894Z,99704.00
2018-08-30T03:33:26.414Z,99700.00
2018-08-30T03:35:53.977Z,99702.00
2018-08-30T03:38:21.533Z,99705.00
2018-08-30T03:40:49.072Z,99703.00
2018-08-30T03:43:16.625Z,99716.00
2018-08-30T03:45:44.181Z,99713.00
2018-08-30T03:48:11.733Z,99726.00
2018-08-30T03:50:39.277Z,99723.00
2018-08-30T03:53:06.821Z,99717.00
2018-08-30T03:55:34.379Z,99726.00
2018-08-30T03:58:01.941Z,99724.00
2018-08-30T04:00:29.497Z,99735.00
2018-08-30T04:02:57.070Z,99732.00
2018-08-30T04:05:24.637Z,99729.00
2018-08-30T04:07:52.201Z,99727.00
2018-08-30T04:10:19.770Z,99731.00
2018-08-30T04:12:47.322Z,99733.00
2018-08-30T04:15:14.888Z,99734.00
2018-08-30T04:17:42.433Z,99732.00
2018-08-30T04:20:10.014Z,99735.00
2018-08-30T04:22:37.564Z,99743.00
2018-08-30T04:25:05.148Z,99747.00
2018-08-30T04:27:32.676Z,99745.00
2018-08-30T04:30:00.232Z,99746.00
2018-08-30T04:32:27.771Z,99756.00
2018-08-30T04:34:55.325Z,99744.00
2018-08-30T04:37:22.873Z,99741.00
2018-08-30T04:39:50.428Z,99753.00
2018-08-30T04:42:18.038Z,99752.00
2018-08-30T04:44:45.544Z,99750.00
2018-08-30T04:47:13.112Z,99765.00
2018-08-30T04:49:40.657Z,99767.00
2018-08-30T04:52:08.233Z,99774.00
2018-08-30T04:54:35.793Z,99776.00
2018-08-30T04:57:03.385Z,99777.00
2018-08-30T04:59:30.922Z,99786.00
2018-08-30T05:01:58.465Z,99786.00
2018-08-30T05:04:26.038Z,99788.00
2018-08-30T05:06:53.594Z,99782.00
2018-08-30T05:09:21.117Z,99791.00
2018-08-30T05:11:48.679Z,99784.00
2018-08-30T05:14:16.256Z,99779.00
2018-08-30T05:16:43.835Z,99790.00
2018-08-30T05:19:11.384Z,99784.00
2018-08-30T05:21:38.959Z,99794.00
2018-08-30T05:24:06.522Z,99791.00
2018-08-30T05:26:34.069Z,99794.00
2018-08-30T05:29:01.616Z,99800.00
2018-08-30T05:31:29.172Z,99794.00
2018-08-30T05:33:56.744Z,99796.00
2018-08-30T05:36:24.304Z,99810.00
2018-08-30T05:38:51.848Z,99806.00
2018-08-30T05:41:19.406Z,99810.00
2018-08-30T05:43:47.013Z,99818.00
2018-08-30T05:46:14.572Z,99826.00
2018-08-30T05:48:42.104Z,99822.00
2018-08-30T05:51:09.647Z,99820.00
2018-08-30T05:53:37.204Z,99820.00
2018-08-30T05:56:04.808Z,99827.00
2018-08-30T05:58:44.668Z,99828.00
2018-08-30T06:01:12.251Z,99829.00
2018-08-30T06:03:39.901Z,99837.00
2018-08-30T06:06:07.471Z,99837.00
2018-08-30T06:08:35.049Z,99834.00
2018-08-30T06:11:02.576Z,99835.00
2018-08-30T06:13:30.136Z,99845.00
2018-08-30T06:15:57.684Z,99846.00
2018-08-30T06:18:25.209Z,99845.00
2018-08-30T06:20:52.769Z,99846.00
2018-08-30T06:23:20.557Z,99852.00
2018-08-30T06:25:48.108Z,99851.00
2018-08-30T06:28:15.649Z,99844.00
2018-08-30T06:30:43.221Z,99850.00
2018-08-30T06:33:10.769Z,99842.00
2018-08-30T06:35:38.311Z,99851.00
2018-08-30T06:38:05.877Z,99849.00
2018-08-30T06:40:33.415Z,99854.00
2018-08-30T06:43:00.984Z,99856.00
2018-08-30T06:45:28.540Z,99856.00
2018-08-30T06:47:56.122Z,99859.00
2018-08-30T06:50:23.660Z,99853.00
2018-08-30T06:52:51.224Z,99861.00
2018-08-30T06:55:18.777Z,99866.00
2018-08-30T06:57:46.357Z,99857.00
2018-08-30T07:00:13.902Z,99869.00
2018-08-30T07:02:41.464Z,99869.00
2018-08-30T07:05:09.053Z,99871.00
2018-08-30T07:07:36.604Z,99862.00
2018-08-30T07:10:05.040Z,99871.00
2018-08-30T07:12:32.601Z,99867.00
2018-08-30T07:15:00.239Z,99875.00
2018-08-30T07:17:27.737Z,99872.00
2018-08-30T07:19:55.355Z,99868.00
2018-08-30T07:22:22.997Z,99874.00
2018-08-30T07:24:50.551Z,99877.00
2018-08-30T07:27:18.100Z,99872.00
2018-08-30T07:29:45.634Z,99863.00
2018-08-30T07:32:13.183Z,99872.00
2018-08-30T07:34:40.750Z,99873.00
2018-08-30T07:37:08.316Z,99877.00
2018-08-30T07:39:35.860Z,99879.00
2018-08-30T07:42:03.500Z,99876.00
2018-08-30T07:44:31.178Z,99873.00
2018-08-30T07:46:58.620Z,99868.00
2018-08-30T07:49:26.167Z,99866.00
2018-08-30T07:51:53.748Z,99867.00
2018-08-30T07:54:21.362Z,99864.00
2018-08-30T07:56:48.868Z,99864.00
2018-08-30T07:59:16.449Z,99866.00
2018-08-30T08:01:44.005Z,99879.00
2018-08-30T08:04:11.597Z,99877.00
2018-08-30T08:06:39.187Z,99883.00
2018-08-30T08:09:08.496Z,99891.00
2018-08-30T08:11:36.074Z,99900.00
2018-08-30T08:14:03.708Z,99910.00
2018-08-30T08:16:31.416Z,99908.00
2018-08-30T08:18:59.027Z,99917.00
2018-08-30T08:21:26.600Z,99932.00
2018-08-30T08:23:54.160Z,99944.00
2018-08-30T08:26:21.836Z,99943.00
2018-08-30T08:28:49.630Z,99951.00
2018-08-30T08:31:23.926Z,99956.00
2018-08-30T08:33:51.476Z,99952.00
2018-08-30T08:36:19.064Z,99961.00
2018-08-30T08:38:46.615Z,99959.00
2018-08-30T08:41:14.148Z,99965.00
2018-08-30T08:43:41.710Z,99967.00
2018-08-30T08:46:09.256Z,99973.00
2018-08-30T08:48:36.818Z,99976.00
2018-08-30T08:51:04.377Z,99981.00
2018-08-30T08:53:31.937Z,99979.00
2018-08-30T08:55:59.480Z,99982.00
2018-08-30T08:58:27.037Z,99980.00
2018-08-30T09:00:54.585Z,99990.00
2018-08-30T09:03:22.150Z,99989.00
2018-08-30T09:05:49.692Z,99988.00
2018-08-30T09:08:17.255Z,99990.00
2018-08-30T09:10:44.822Z,99989.00
2018-08-30T09:13:12.426Z,99996.00
2018-08-30T09:15:39.990Z,99996.00
2018-08-30T09:18:07.555Z,100009.00
2018-08-30T09:20:35.117Z,100014.00
2018-08-30T09:23:02.706Z,100003.00
2018-08-30T09:25:30.252Z,100004.00
2018-08-30T09:27:57.816Z,100000.00
2018-08-30T09:30:25.398Z,100004.00
2018-08-30T09:32:52.959Z,100000.00
2018-08-30T09:35:20.642Z,100006.00
2018-08-30T09:37:48.188Z,100009.00
2018-08-30T09:40:28.901Z,100010.00
2018-08-30T09:42:56.447Z,100022.00
2018-08-30T09:45:24.002Z,100024.00
2018-08-30T09:47:51.561Z,100026.00
2018-08-30T09:50:19.108Z,100018.00
2018-08-30T09:52:46.652Z,100028.00
2018-08-30T09:55:14.222Z,100023.00
2018-08-30T09:57:41.831Z,100041.00
2018-08-30T10:00:18.029Z,100045.00
2018-08-30T10:02:48.947Z,100043.00
2018-08-30T10:05:16.828Z,100040.00
2018-08-30T10:07:44.677Z,100040.00
2018-08-30T10:10:12.212Z,100033.00
2018-08-30T10:12:39.784Z,100039.00
2018-08-30T10:15:07.332Z,100051.00
2018-08-30T10:17:35.213Z,100047.00
2018-08-30T10:20:02.790Z,100046.00
2018-08-30T10:22:30.366Z,100058.00
2018-08-30T10:24:57.921Z,100059.00
2018-08-30T10:27:25.460Z,100057.00
2018-08-30T10:29:53.034Z,100065.00
2018-08-30T10:32:20.584Z,100065.00
2018-08-30T10:34:48.128Z,100063.00
2018-08-30T10:37:15.687Z,100058.00
2018-08-30T10:39:43.244Z,100051.00
2018-08-30T10:42:10.794Z,100058.00
2018-08-30T10:44:38.360Z,100066.00
2018-08-30T10:47:05.935Z,100065.00
2018-08-30T10:49:33.665Z,100063.00
2018-08-30T10:52:01.060Z,100068.00
2018-08-30T10:54:28.624Z,100064.00
2018-08-30T10:56:56.186Z,100067.00
2018-08-30T10:59:23.748Z,100076.00
2018-08-30T11:01:51.364Z,100069.00
2018-08-30T11:04:19.000Z,100074.00
2018-08-30T11:06:46.539Z,100077.00
2018-08-30T11:09:14.097Z,100080.00
2018-08-30T11:11:41.653Z,100079.00
2018-08-30T11:14:09.212Z,100082.00
2018-08-30T11:16:36.752Z,100086.00
2018-08-30T11:19:04.316Z,100087.00
2018-08-30T11:21:31.874Z,100094.00
2018-08-30T11:23:59.436Z,100100.00
2018-08-30T11:26:26.972Z,100092.00
2018-08-30T11:28:54.546Z,100104.00
2018-08-30T11:31:22.316Z,100113.00
2018-08-30T11:33:49.868Z,100111.00
2018-08-30T11:36:17.437Z,100112.00
2018-08-30T11:38:45.021Z,100113.00
2018-08-30T11:41:12.674Z,100120.00
2018-08-30T11:43:40.207Z,100127.00
2018-08-30T11:46:07.769Z,100142.00
2018-08-30T11:48:35.338Z,100142.00
2018-08-30T11:51:02.935Z,100142.00
2018-08-30T11:53:30.558Z,100147.00
2018-08-30T11:55:58.115Z,100140.00
2018-08-30T11:58:25.690Z,100142.00
2018-08-30T12:00:53.335Z,100146.00
2018-08-30T12:03:21.730Z,100148.00
2018-08-30T12:05:50.134Z,100148.00
2018-08-30T12:08:17.751Z,100150.00
2018-08-30T12:10:45.397Z,100160.00
2018-08-30T12:13:12.935Z,100159.00
2018-08-30T12:15:40.506Z,100166.00
2018-08-30T12:18:08.074Z,100154.00
2018-08-30T12:20:35.693Z,100166.00
2018-08-30T12:23:03.401Z,100167.00
2018-08-30T12:25:30.976Z,100163.00
2018-08-30T12:27:58.520Z,100163.00
2018-08-30T12:30:26.112Z,100154.00
2018-08-30T12:32:53.696Z,100161.00
2018-08-30T12:35:21.280Z,100174.00
2018-08-30T12:37:48.870Z,100168.00
2018-08-30T12:40:16.490Z,100170.00
2018-08-30T12:42:44.003Z,100166.00
2018-08-30T12:45:11.587Z,100179.00
2018-08-30T12:47:39.090Z,100180.00
2018-08-30T12:50:06.738Z,100179.00
2018-08-30T12:52:34.341Z,100196.00
2018-08-30T12:55:01.990Z,100191.00
2018-08-30T12:57:29.916Z,100201.00
2018-08-30T12:59:57.515Z,100201.00
2018-08-30T13:02:25.107Z,100201.00
2018-08-30T13:04:52.760Z,100205.00
2018-08-30T13:07:22.439Z,100207.00
2018-08-30T13:09:50.405Z,100204.00
2018-08-30T13:12:18.144Z,100209.00
2018-08-30T13:14:45.638Z,100220.00
2018-08-30T13:17:13.084Z,100217.00
2018-08-30T13:19:40.818Z,100222.00
2018-08-30T13:22:08.535Z,100228.00
2018-08-30T13:24:36.058Z,100240.00
2018-08-30T13:27:03.567Z,100244.00
2018-08-30T13:29:31.023Z,100255.00
2018-08-30T13:31:58.733Z,100255.00
2018-08-30T13:34:26.297Z,100243.00
2018-08-30T13:36:53.799Z,100236.00
2018-08-30T13:39:21.657Z,100249.00
2018-08-30T13:41:49.133Z,100243.00
2018-08-30T13:44:16.400Z,100249.00
2018-08-30T13:46:44.338Z,100250.00
2018-08-30T13:49:11.738Z,100251.00
2018-08-30T13:51:39.328Z,100250.00
2018-08-30T13:54:07.048Z,100243.00
2018-08-30T13:56:34.599Z,100249.00
2018-08-30T13:59:02.573Z,100255.00
2018-08-30T14:01:30.101Z,100263.00
2018-08-30T14:03:57.277Z,100263.00
2018-08-30T14:06:24.870Z,100268.00
2018-08-30T14:08:52.437Z,100266.00
2018-08-30T14:11:20.058Z,100265.00
2018-08-30T14:13:47.553Z,100275.00
2018-08-30T14:16:14.937Z,100270.00
2018-08-30T14:18:42.468Z,100281.00
2018-08-30T14:21:10.081Z,100285.00
2018-08-30T14:23:37.548Z,100289.00
2018-08-30T14:26:05.949Z,100283.00
2018-08-30T14:28:33.502Z,100284.00
2018-08-30T14:31:07.758Z,100293.00
2018-08-30T14:33:35.309Z,100291.00
2018-08-30T14:36:02.904Z,100287.00
2018-08-30T14:38:30.416Z,100296.00
2018-08-30T14:40:58.172Z,100303.00
2018-08-30T14:43:25.558Z,100295.00
2018-08-30T14:45:53.108Z,100294.00
2018-08-30T14:48:20.737Z,100297.00
2018-08-30T14:50:48.348Z,100301.00
2018-08-30T14:53:15.926Z,100294.00
2018-08-30T14:55:43.460Z,100305.00
2018-08-30T14:58:11.169Z,100306.00
2018-08-30T15:00:38.636Z,100297.00
2018-08-30T15:03:06.207Z,100296.00
2018-08-30T15:05:33.930Z,100307.00
2018-08-30T15:08:01.324Z,100307.00
2018-08-30T15:10:28.904Z,100313.00
2018-08-30T15:12:56.476Z,100312.00
2018-08-30T15:15:24.064Z,100308.00
2018-08-30T15:17:51.650Z,100307.00
2018-08-30T15:20:19.221Z,100305.00
2018-08-30T15:22:46.773Z,100307.00
2018-08-30T15:25:14.341Z,100310.00
2018-08-30T15:27:41.880Z,100322.00
2018-08-30T15:30:09.437Z,100316.00
2018-08-30T15:32:37.004Z,100321.00
2018-08-30T15:35:04.939Z,100318.00
2018-08-30T15:37:34.543Z,100339.00
2018-08-30T15:40:10.398Z,100336.00
2018-08-30T15:42:44.309Z,100335.00
2018-08-30T15:45:28.729Z,100339.00
2018-08-30T15:47:56.348Z,100338.00
2018-08-30T15:50:23.908Z,100337.00
2018-08-30T15:53:12.485Z,100334.00
2018-08-30T15:56:01.132Z,100322.00
2018-08-30T15:58:38.666Z,100318.00
2018-08-30T16:01:06.259Z,100324.00
2018-08-30T16:03:34.021Z,100324.00
2018-08-30T16:06:01.944Z,100315.00
2018-08-30T16:08:29.493Z,100314.00
2018-08-30T16:10:57.066Z,100316.00
2018-08-30T16:13:24.698Z,100315.00
2018-08-30T16:15:52.222Z,100316.00
2018-08-30T16:18:19.753Z,100302.00
2018-08-30T16:20:47.317Z,100301.00
2018-08-30T16:23:34.828Z,100301.00
2018-08-30T16:26:02.408Z,100307.00
2018-08-30T16:28:30.864Z,100306.00
2018-08-30T16:30:58.475Z,100302.00
2018-08-30T16:33:26.194Z,100311.00
2018-08-30T16:35:53.781Z,100310.00
2018-08-30T16:38:21.332Z,100303.00
2018-08-30T16:40:48.983Z,100303.00
2018-08-30T16:43:16.464Z,100304.00
2018-08-30T16:45:44.500Z,100302.00
2018-08-30T16:48:12.065Z,100304.00
2018-08-30T16:50:39.642Z,100305.00
2018-08-30T16:53:07.281Z,100312.00
2018-08-30T16:55:35.299Z,100303.00
2018-08-30T16:58:02.874Z,100294.00
2018-08-30T17:00:30.424Z,100298.00
2018-08-30T17:02:58.289Z,100309.00
2018-08-30T17:05:26.016Z,100308.00
2018-08-30T17:07:53.607Z,100313.00
2018-08-30T17:10:21.190Z,100315.00
2018-08-30T17:12:48.764Z,100316.00
2018-08-30T17:15:16.301Z,100307.00
2018-08-30T17:17:43.932Z,100301.00
2018-08-30T17:20:17.894Z,100302.00
2018-08-30T17:22:45.314Z,100303.00
2018-08-30T17:25:12.937Z,100304.00
2018-08-30T17:27:40.479Z,100307.00
2018-08-30T17:30:08.067Z,100307.00
2018-08-30T17:32:35.952Z,100307.00
2018-08-30T17:35:03.547Z,100306.00
2018-08-30T17:37:31.097Z,100313.00
2018-08-30T17:39:58.657Z,100310.00
2018-08-30T17:42:26.235Z,100296.00
2018-08-30T17:51:04.461Z,100308.00
2018-08-30T17:53:32.002Z,100320.00
2018-08-30T17:55:59.702Z,100321.00
2018-08-30T17:58:27.159Z,100326.00
2018-08-30T18:00:54.723Z,100336.00
2018-08-30T18:03:22.354Z,100339.00
2018-08-30T18:05:49.852Z,100340.00
2018-08-30T18:08:17.406Z,100346.00
2018-08-30T18:10:44.965Z,100352.00
2018-08-30T18:13:12.525Z,100344.00
2018-08-30T18:15:40.065Z,100354.00
2018-08-30T18:18:07.663Z,100352.00
2018-08-30T18:20:35.179Z,100364.00
2018-08-30T18:23:02.764Z,100367.00
2018-08-30T18:25:30.332Z,100364.00
2018-08-30T18:27:57.882Z,100368.00
2018-08-30T18:30:25.426Z,100375.00
2018-08-30T18:32:52.997Z,100370.00
2018-08-30T18:35:20.550Z,100377.00
2018-08-30T18:37:48.104Z,100375.00
2018-08-30T18:40:15.644Z,100376.00
2018-08-30T18:42:43.197Z,100382.00
2018-08-30T18:45:10.744Z,100383.00
2018-08-30T18:47:38.280Z,100392.00
2018-08-30T18:50:05.888Z,100401.00
2018-08-30T18:52:33.748Z,100400.00
2018-08-30T18:55:01.312Z,100408.00
2018-08-30T18:57:28.865Z,100409.00
2018-08-30T18:59:56.384Z,100410.00
2018-08-30T19:02:23.955Z,100416.00
2018-08-30T19:05:02.038Z,100421.00
2018-08-30T19:07:29.603Z,100425.00
2018-08-30T19:09:57.157Z,100419.00
2018-08-30T19:12:24.728Z,100414.00
2018-08-30T19:14:52.273Z,100422.00
2018-08-30T19:20:31.228Z,100430.00
2018-08-30T19:22:58.756Z,100426.00
2018-08-30T19:25:27.916Z,100421.00
2018-08-30T19:27:55.678Z,100431.00
2018-08-30T19:30:27.360Z,100439.00
2018-08-30T19:32:56.132Z,100441.00
2018-08-30T19:35:29.550Z,100439.00
2018-08-30T19:37:57.156Z,100435.00
2018-08-30T19:40:30.505Z,100440.00
2018-08-30T19:42:58.978Z,100446.00
2018-08-30T19:45:26.928Z,100451.00
2018-08-30T19:47:55.018Z,100444.00
2018-08-30T19:50:22.605Z,100448.00
2018-08-30T19:52:50.162Z,100449.00
2018-08-30T19:55:17.994Z,100441.00
2018-08-30T19:57:45.623Z,100441.00
2018-08-30T20:00:13.184Z,100446.00
2018-08-30T20:02:40.728Z,100445.00
2018-08-30T20:05:08.310Z,100437.00
2018-08-30T20:07:36.107Z,100446.00
2018-08-30T20:10:04.307Z,100442.00
2018-08-30T20:12:31.853Z,100452.00
2018-08-30T20:15:03.278Z,100453.00
2018-08-30T20:17:30.821Z,100452.00
2018-08-30T20:19:58.394Z,100458.00
2018-08-30T20:22:25.974Z,100455.00
2018-08-30T20:24:53.509Z,100458.00
2018-08-30T20:27:21.068Z,100460.00
2018-08-30T20:29:48.596Z,100459.00
2018-08-30T20:32:16.180Z,100456.00
2018-08-30T20:34:43.729Z,100462.00
2018-08-30T20:37:11.324Z,100473.00
2018-08-30T20:39:38.873Z,100466.00
2018-08-30T20:42:06.412Z,100470.00
2018-08-30T20:44:33.939Z,100465.00
2018-08-30T20:47:01.566Z,100468.00
2018-08-30T20:49:29.109Z,100456.00
2018-08-30T20:52:03.444Z,100467.00
2018-08-30T20:54:30.988Z,100467.00
2018-08-30T20:56:58.580Z,100461.00
2018-08-30T20:59:26.493Z,100460.00
2018-08-30T21:01:54.109Z,100460.00
2018-08-30T21:04:21.624Z,100463.00
2018-08-30T21:06:49.181Z,100453.00
2018-08-30T21:09:16.720Z,100457.00
2018-08-30T21:11:44.278Z,100465.00
2018-08-30T21:14:11.840Z,100456.00
2018-08-30T21:16:39.380Z,100465.00
2018-08-30T21:19:06.917Z,100464.00
2018-08-30T21:21:34.465Z,100465.00
2018-08-30T21:24:02.015Z,100463.00
2018-08-30T21:26:29.567Z,100462.00
2018-08-30T21:28:57.096Z,100466.00
2018-08-30T21:31:24.640Z,100464.00
2018-08-30T21:33:52.177Z,100468.00
2018-08-30T21:36:19.723Z,100468.00
2018-08-30T21:38:47.277Z,100470.00
2018-08-30T21:41:14.838Z,100464.00
2018-08-30T21:43:42.381Z,100475.00
2018-08-30T21:46:09.946Z,100476.00
2018-08-30T21:48:37.474Z,100476.00
2018-08-30T21:51:05.066Z,100481.00
2018-08-30T21:53:32.621Z,100479.00
2018-08-30T21:56:00.211Z,100479.00
2018-08-30T21:58:27.756Z,100479.00
2018-08-30T22:00:55.305Z,100483.00
2018-08-30T22:03:22.859Z,100481.00
2018-08-30T22:05:57.083Z,100489.00
2018-08-30T22:08:24.637Z,100494.00
2018-08-30T22:10:52.182Z,100493.00
2018-08-30T22:13:19.806Z,100491.00
2018-08-30T22:15:47.297Z,100493.00
2018-08-30T22:18:14.844Z,100493.00
2018-08-30T22:20:42.469Z,100487.00
2018-08-30T22:23:10.048Z,100488.00
2018-08-30T22:25:37.610Z,100495.00
2018-08-30T22:28:05.608Z,100501.00
2018-08-30T22:30:33.164Z,100498.00
2018-08-30T22:33:00.734Z,100499.00
2018-08-30T22:35:28.321Z,100497.00
2018-08-30T22:37:55.877Z,100498.00
2018-08-30T22:40:23.526Z,100506.00
2018-08-30T22:42:51.056Z,100493.00
2018-08-30T22:47:51.909Z,100502.00
2018-08-30T22:50:19.456Z,100495.00
2018-08-30T22:52:46.995Z,100512.00
2018-08-30T22:55:14.540Z,100497.00
2018-08-30T22:57:42.128Z,100506.00
2018-08-30T23:00:09.627Z,100507.00
2018-08-30T23:02:37.201Z,100513.00
2018-08-30T23:05:04.801Z,100503.00
2018-08-30T23:07:32.348Z,100501.00
2018-08-30T23:09:59.896Z,100508.00
2018-08-30T23:12:27.438Z,100516.00
2018-08-30T23:14:54.983Z,100512.00
2018-08-30T23:17:22.508Z,100505.00
2018-08-30T23:19:50.073Z,100512.00
2018-08-30T23:22:17.621Z,100510.00
2018-08-30T23:24:45.168Z,100514.00
2018-08-30T23:27:12.726Z,100511.00
2018-08-30T23:29:40.264Z,100512.00
2018-08-30T23:32:07.805Z,100511.00
2018-08-30T23:34:35.349Z,100512.00
2018-08-30T23:37:02.914Z,100522.00
2018-08-30T23:39:30.464Z,100507.00
2018-08-30T23:41:58.038Z,100507.00
2018-08-30T23:44:25.572Z,100508.00
2018-08-30T23:46:53.125Z,100506.00
2018-08-30T23:49:20.685Z,100498.00
2018-08-30T23:51:48.242Z,100511.00
2018-08-30T23:54:15.780Z,100510.00
2018-08-30T23:56:43.329Z,100512.00
2018-08-30T23:59:28.308Z,100509.00
